Time;durP1;ratioP1;P1;durP2;ratioP2;P2;SDS_P1;SDS_P2;PMS_P1;PMS_P2;Temp;Humidity;BMP_temperature;BMP_pressure;BME280_temperature;BME280_humidity;BME280_pressure;Samples;Min_cycle;Max_cycle;Signal;HPM_P1;HPM_P2
2023/06/07 00:02:11;;;;;;;1.80;1.05;;;17.50;99.90;;;;;;5073614;28;20301;-72
2023/06/07 00:04:39;;;;;;;0.30;0.30;;;17.50;99.90;;;;;;5073354;28;20221;-69
2023/06/07 00:07:06;;;;;;;0.30;0.30;;;17.50;1.00;;;;;;5073251;28;20206;-72
2023/06/07 00:09:33;;;;;;;1.00;1.00;;;17.40;1.00;;;;;;5072729;28;20300;-71
2023/06/07 00:12:00;;;;;;;0.20;0.20;;;17.40;99.90;;;;;;5073471;28;20216;-74
2023/06/07 00:14:29;;;;;;;2.47;1.77;;;17.30;15.70;;;;;;5072741;28;20245;-72
2023/06/07 00:16:56;;;;;;;0.60;0.60;;;17.20;1.00;;;;;;5073355;28;20267;-70
2023/06/07 00:19:24;;;;;;;0.52;0.52;;;17.20;1.00;;;;;;5072384;28;20245;-72
2023/06/07 00:21:52;;;;;;;0.20;0.20;;;17.20;99.90;;;;;;5072980;28;20206;-71
2023/06/07 00:24:18;;;;;;;0.77;0.77;;;17.30;99.90;;;;;;5072414;28;20238;-71
2023/06/07 00:26:45;;;;;;;0.25;0.25;;;17.30;66.90;;;;;;5072999;28;20289;-72
2023/06/07 00:29:13;;;;;;;0.30;0.30;;;17.30;1.00;;;;;;5073111;28;20721;-70
2023/06/07 00:31:41;;;;;;;0.73;0.73;;;17.30;1.00;;;;;;5072116;28;20238;-70
2023/06/07 00:34:08;;;;;;;0.50;0.50;;;17.40;1.00;;;;;;5072927;28;20242;-69
2023/06/07 00:36:35;;;;;;;0.30;0.25;;;17.40;1.00;;;;;;5072023;28;20268;-71
2023/06/07 00:39:03;;;;;;;0.55;0.55;;;17.40;1.00;;;;;;5079749;28;20256;-72
2023/06/07 00:41:30;;;;;;;0.20;0.20;;;17.30;1.00;;;;;;5092723;28;20220;-71
2023/06/07 00:43:57;;;;;;;2.92;1.55;;;17.30;99.90;;;;;;5092791;28;20229;-74
2023/06/07 00:46:27;;;;;;;0.50;0.50;;;17.30;99.90;;;;;;5092310;28;20233;-72
2023/06/07 00:48:56;;;;;;;0.57;0.57;;;17.30;1.00;;;;;;5092639;28;20237;-72
2023/06/07 00:51:24;;;;;;;0.38;0.38;;;17.30;1.00;;;;;;5092504;28;20243;-70
2023/06/07 00:53:52;;;;;;;0.20;0.20;;;17.20;99.90;;;;;;5092658;28;20248;-70
2023/06/07 00:56:19;;;;;;;0.20;0.20;;;17.30;99.90;;;;;;5092319;28;20248;-70
2023/06/07 00:58:47;;;;;;;0.57;0.57;;;17.20;99.90;;;;;;5077285;28;20259;-70
2023/06/07 01:01:17;;;;;;;0.20;0.20;;;17.20;1.00;;;;;;5072164;28;20237;-71
2023/06/07 01:03:45;;;;;;;0.20;0.20;;;17.20;1.00;;;;;;5072416;28;20213;-70
2023/06/07 01:06:13;;;;;;;0.20;0.20;;;17.20;1.00;;;;;;5072667;28;20198;-69
2023/06/07 01:08:41;;;;;;;0.20;0.20;;;17.10;1.00;;;;;;5072670;28;20206;-68
2023/06/07 01:11:09;;;;;;;0.55;0.55;;;17.00;99.90;;;;;;5072036;28;20648;-71
2023/06/07 01:13:38;;;;;;;0.10;0.10;;;17.00;99.90;;;;;;5071716;28;20206;-71
2023/06/07 01:16:06;;;;;;;0.20;0.20;;;17.00;99.90;;;;;;5071744;28;20394;-69
2023/06/07 01:18:33;;;;;;;8.60;7.80;;;17.10;90.20;;;;;;5071778;28;20217;-71
2023/06/07 01:21:03;;;;;;;8.48;6.07;;;17.10;54.60;;;;;;5071808;28;20238;-69
2023/06/07 01:23:32;;;;;;;8.55;6.63;;;17.10;1.00;;;;;;5071453;28;20574;-70
2023/06/07 01:26:00;;;;;;;9.15;5.82;;;17.10;1.00;;;;;;5071664;28;20234;-69
2023/06/07 01:28:29;;;;;;;11.13;6.90;;;17.10;1.00;;;;;;5071460;28;20244;-72
2023/06/07 01:30:57;;;;;;;9.27;8.25;;;17.20;1.00;;;;;;5071280;28;20226;-73
2023/06/07 01:33:25;;;;;;;9.05;8.05;;;17.20;1.00;;;;;;5071420;28;20241;-70
2023/06/07 01:35:54;;;;;;;9.23;8.43;;;17.10;1.00;;;;;;5071842;28;20305;-71
2023/06/07 01:38:22;;;;;;;9.05;7.90;;;17.10;99.90;;;;;;5070964;28;20202;-70
2023/06/07 01:40:52;;;;;;;10.77;7.93;;;17.00;99.90;;;;;;5071507;28;20237;-70
2023/06/07 01:43:21;;;;;;;10.45;9.30;;;17.00;88.60;;;;;;5069741;28;20712;-69
2023/06/07 01:45:49;;;;;;;9.48;8.40;;;17.00;1.00;;;;;;5071439;28;20213;-70
2023/06/07 01:48:16;;;;;;;8.50;7.70;;;16.90;1.00;;;;;;5071161;28;20403;-71
2023/06/07 01:50:43;;;;;;;11.10;8.20;;;16.90;1.00;;;;;;5071256;28;20238;-68
2023/06/07 01:53:10;;;;;;;10.18;8.00;;;16.90;1.00;;;;;;5071473;28;20210;-69
2023/06/07 01:55:38;;;;;;;10.95;9.38;;;16.90;1.00;;;;;;5071033;28;20292;-71
2023/06/07 01:58:19;;;;;;;12.68;9.40;;;16.90;1.00;;;;;;5071128;28;20214;-71
2023/06/07 02:00:53;;;;;;;11.20;9.98;;;16.80;99.90;;;;;;5070865;28;20210;-67
2023/06/07 02:03:27;;;;;;;12.10;10.82;;;16.80;99.90;;;;;;5070672;28;20296;-67
2023/06/07 02:06:02;;;;;;;11.68;10.57;;;16.90;4.00;;;;;;5071020;28;20208;-68
2023/06/07 02:08:31;;;;;;;11.30;9.73;;;16.90;1.00;;;;;;5070645;28;20259;-69
2023/06/07 02:10:59;;;;;;;11.02;8.98;;;16.90;1.00;;;;;;5070615;28;20717;-73
2023/06/07 02:13:30;;;;;;;17.35;10.88;;;16.90;1.00;;;;;;5070604;28;20236;-68
2023/06/07 02:15:57;;;;;;;12.52;10.13;;;16.90;1.00;;;;;;5070831;28;20245;-70
2023/06/07 02:18:25;;;;;;;10.52;9.45;;;16.80;99.90;;;;;;5070516;28;20245;-72
2023/06/07 02:20:52;;;;;;;10.35;9.35;;;16.80;99.90;;;;;;5070543;28;20681;-71
2023/06/07 02:23:21;;;;;;;11.30;10.05;;;16.80;99.90;;;;;;5070722;28;20247;-67
2023/06/07 02:25:48;;;;;;;12.32;9.73;;;16.80;1.00;;;;;;5070964;28;20210;-70
2023/06/07 02:28:15;;;;;;;10.48;9.48;;;16.80;1.00;;;;;;5070605;28;20293;-68
2023/06/07 02:30:43;;;;;;;11.20;9.90;;;16.70;1.00;;;;;;5070963;28;20280;-67
2023/06/07 02:33:13;;;;;;;10.80;9.70;;;16.70;1.00;;;;;;5069722;28;20245;-69
2023/06/07 02:35:41;;;;;;;11.45;9.95;;;16.70;1.00;;;;;;5079788;28;20206;-68
2023/06/07 02:38:08;;;;;;;11.63;8.98;;;16.70;99.90;;;;;;5070744;28;20214;-69
2023/06/07 02:40:35;;;;;;;10.63;9.27;;;16.80;99.90;;;;;;5070032;28;20872;-70
2023/06/07 02:43:02;;;;;;;10.93;9.82;;;16.70;99.90;;;;;;5070202;28;20684;-70
2023/06/07 02:45:29;;;;;;;10.95;8.88;;;16.70;99.90;;;;;;5070168;28;20202;-70
2023/06/07 02:47:58;;;;;;;12.02;9.57;;;16.70;99.90;;;;;;5070273;28;20233;-70
2023/06/07 02:50:25;;;;;;;12.25;10.80;;;16.70;52.90;;;;;;5070055;28;20237;-69
2023/06/07 02:52:52;;;;;;;12.85;9.70;;;16.70;1.00;;;;;;5070267;28;20712;-75
2023/06/07 02:55:19;;;;;;;14.52;10.00;;;16.70;1.00;;;;;;5069899;28;20248;-72
2023/06/07 02:57:46;;;;;;;15.45;10.93;;;16.70;1.00;;;;;;5070191;28;20674;-74
2023/06/07 03:00:14;;;;;;;14.43;10.13;;;16.70;1.00;;;;;;5070238;28;20226;-71
2023/06/07 03:02:41;;;;;;;12.15;10.90;;;16.70;1.00;;;;;;5070613;28;20293;-72
2023/06/07 03:05:10;;;;;;;11.23;10.07;;;16.70;1.00;;;;;;5070394;28;20209;-76
2023/06/07 03:07:40;;;;;;;15.00;11.18;;;16.60;1.00;;;;;;5070450;28;20241;-71
2023/06/07 03:10:08;;;;;;;13.25;10.95;;;16.60;1.00;;;;;;5070207;28;20206;-72
2023/06/07 03:12:35;;;;;;;12.43;10.75;;;16.60;1.00;;;;;;5069643;28;20299;-76
2023/06/07 03:15:02;;;;;;;12.90;10.48;;;16.60;1.00;;;;;;5069810;28;20764;-75
2023/06/07 03:17:29;;;;;;;11.43;10.23;;;16.50;99.90;;;;;;5070170;28;20237;-73
2023/06/07 03:19:56;;;;;;;10.75;9.65;;;16.50;99.90;;;;;;5070202;28;20248;-75
2023/06/07 03:22:24;;;;;;;13.00;9.40;;;16.50;99.90;;;;;;5069719;28;20217;-75
2023/06/07 03:24:52;;;;;;;11.75;10.20;;;16.50;99.90;;;;;;5070289;28;20301;-72
2023/06/07 03:27:22;;;;;;;12.02;10.73;;;16.50;99.90;;;;;;5069134;28;20661;-70
2023/06/07 03:29:49;;;;;;;12.02;10.63;;;16.50;99.90;;;;;;5070354;28;20213;-75
2023/06/07 03:32:16;;;;;;;11.68;9.80;;;16.50;99.90;;;;;;5069367;28;20639;-70
2023/06/07 03:34:43;;;;;;;15.18;10.55;;;16.40;55.90;;;;;;5069861;28;20256;-71
2023/06/07 03:37:10;;;;;;;12.48;11.18;;;16.30;1.00;;;;;;5070312;28;20264;-74
2023/06/07 03:39:38;;;;;;;12.40;10.52;;;16.40;1.00;;;;;;5069888;28;20327;-73
2023/06/07 03:42:06;;;;;;;11.82;10.10;;;16.40;1.00;;;;;;5069686;28;20238;-71
2023/06/07 03:44:33;;;;;;;10.85;9.80;;;16.30;1.00;;;;;;5069506;28;20264;-71
2023/06/07 03:47:00;;;;;;;11.48;10.18;;;16.30;1.00;;;;;;5070067;28;20245;-71
2023/06/07 03:49:27;;;;;;;11.23;9.68;;;16.30;1.00;;;;;;5069320;28;20637;-71
2023/06/07 03:51:54;;;;;;;17.38;10.88;;;16.30;99.90;;;;;;5069899;28;20281;-71
2023/06/07 03:54:21;;;;;;;11.75;10.55;;;16.30;99.90;;;;;;5067433;28;20248;-68
2023/06/07 03:56:49;;;;;;;13.77;11.32;;;16.30;99.90;;;;;;5058021;28;20237;-75
2023/06/07 03:59:20;;;;;;;12.50;10.25;;;16.30;1.00;;;;;;5069407;28;20393;-72
2023/06/07 04:01:49;;;;;;;13.52;11.80;;;16.30;1.00;;;;;;5064694;28;20206;-70
2023/06/07 04:04:16;;;;;;;13.75;10.27;;;16.30;1.00;;;;;;5069303;28;20211;-75
2023/06/07 04:06:43;;;;;;;14.68;11.70;;;16.30;1.00;;;;;;5071740;28;20242;-70
2023/06/07 04:09:10;;;;;;;11.73;10.52;;;16.30;99.90;;;;;;5073557;28;20263;-71
2023/06/07 04:11:37;;;;;;;12.77;11.45;;;16.30;99.90;;;;;;5069636;28;20266;-75
2023/06/07 04:14:05;;;;;;;12.93;11.13;;;16.30;1.00;;;;;;5069410;28;20681;-72
2023/06/07 04:16:32;;;;;;;12.93;10.82;;;16.30;1.00;;;;;;5072331;28;20524;-70
2023/06/07 04:18:59;;;;;;;11.68;10.30;;;16.30;1.00;;;;;;5072913;28;20241;-71
2023/06/07 04:21:26;;;;;;;13.65;10.43;;;16.30;1.00;;;;;;5072261;28;20237;-71
2023/06/07 04:23:53;;;;;;;14.85;11.52;;;16.20;1.00;;;;;;5072887;28;20254;-69
2023/06/07 04:26:21;;;;;;;18.00;11.40;;;16.20;1.00;;;;;;5072142;28;20244;-71
2023/06/07 04:28:49;;;;;;;14.02;10.88;;;16.20;1.00;;;;;;5072862;28;20202;-70
2023/06/07 04:31:18;;;;;;;12.82;11.15;;;16.30;1.00;;;;;;5072060;28;20628;-73
2023/06/07 04:33:46;;;;;;;13.52;12.10;;;16.30;1.00;;;;;;5066259;28;20683;-70
2023/06/07 04:36:14;;;;;;;12.85;11.48;;;16.30;1.00;;;;;;5060238;28;20297;-72
2023/06/07 04:38:41;;;;;;;15.48;11.32;;;16.30;1.00;;;;;;5059894;28;20207;-76
2023/06/07 04:41:08;;;;;;;13.93;11.27;;;16.30;1.00;;;;;;5068175;28;20698;-74
2023/06/07 04:43:36;;;;;;;18.08;11.50;;;16.30;1.00;;;;;;5069791;28;20237;-70
2023/06/07 04:46:03;;;;;;;16.15;11.75;;;16.30;1.00;;;;;;5071601;28;20248;-78
2023/06/07 04:48:32;;;;;;;13.40;10.45;;;16.30;1.00;;;;;;5065279;28;20230;-80
2023/06/07 04:51:03;;;;;;;13.13;11.80;;;16.30;1.00;;;;;;5071622;28;20212;-76
2023/06/07 04:53:34;;;;;;;11.60;10.40;;;16.40;1.00;;;;;;5070123;28;20202;-73
2023/06/07 04:56:02;;;;;;;10.60;9.60;;;16.40;1.00;;;;;;5064895;28;20210;-75
2023/06/07 04:58:29;;;;;;;13.77;11.25;;;16.40;1.00;;;;;;5071988;28;20584;-75
2023/06/07 05:00:56;;;;;;;16.35;12.50;;;16.40;1.00;;;;;;5074569;28;20238;-74
2023/06/07 05:03:24;;;;;;;12.70;11.30;;;16.40;1.00;;;;;;5064264;28;20211;-75
2023/06/07 05:05:53;;;;;;;14.73;11.40;;;16.50;1.00;;;;;;5069259;28;20697;-71
2023/06/07 05:08:21;;;;;;;12.70;11.38;;;16.50;1.00;;;;;;5070361;28;20202;-71
2023/06/07 05:10:48;;;;;;;13.77;11.32;;;16.60;1.00;;;;;;5070160;28;20238;-71
2023/06/07 05:13:15;;;;;;;13.60;11.63;;;16.60;1.00;;;;;;5070671;28;20321;-73
2023/06/07 05:15:44;;;;;;;12.70;11.15;;;16.60;1.00;;;;;;5071719;28;20320;-71
2023/06/07 05:18:12;;;;;;;12.30;11.00;;;16.70;1.00;;;;;;5071951;28;20199;-72
2023/06/07 05:20:39;;;;;;;13.15;11.75;;;16.70;1.00;;;;;;5071682;28;20669;-72
2023/06/07 05:23:07;;;;;;;14.38;10.75;;;16.70;1.00;;;;;;5071495;28;20691;-76
2023/06/07 05:25:34;;;;;;;14.60;12.27;;;16.70;1.00;;;;;;5071218;28;20305;-74
2023/06/07 05:28:01;;;;;;;13.05;11.70;;;16.80;1.00;;;;;;5071580;28;20241;-75
2023/06/07 05:30:28;;;;;;;13.82;12.05;;;16.80;1.00;;;;;;5066310;28;20285;-79
2023/06/07 05:32:55;;;;;;;12.68;10.82;;;16.90;1.00;;;;;;5069541;28;20725;-72
2023/06/07 05:35:22;;;;;;;14.80;13.20;;;16.90;1.00;;;;;;5071082;28;20289;-74
2023/06/07 05:37:49;;;;;;;14.93;13.23;;;16.90;1.00;;;;;;5071089;28;20632;-71
2023/06/07 05:40:19;;;;;;;17.08;14.23;;;17.00;1.00;;;;;;5070868;28;20203;-70
2023/06/07 05:42:46;;;;;;;15.75;13.73;;;17.10;1.00;;;;;;5071223;28;20203;-74
2023/06/07 05:45:12;;;;;;;13.82;12.40;;;17.20;1.00;;;;;;5071411;28;20244;-72
2023/06/07 05:47:40;;;;;;;16.42;14.35;;;17.20;1.00;;;;;;5066522;28;20267;-76
2023/06/07 05:50:10;;;;;;;14.48;12.68;;;17.30;99.90;;;;;;5060375;28;20261;-75
2023/06/07 05:52:37;;;;;;;20.70;14.13;;;17.40;99.90;;;;;;5067531;28;20226;-73
2023/06/07 05:55:04;;;;;;;16.85;13.48;;;17.50;99.90;;;;;;5061569;28;20206;-73
2023/06/07 05:57:32;;;;;;;14.57;13.18;;;17.60;99.90;;;;;;5066251;28;20241;-74
2023/06/07 05:59:59;;;;;;;14.20;12.40;;;17.60;99.90;;;;;;5069850;28;20230;-79
2023/06/07 06:02:28;;;;;;;14.43;12.95;;;17.70;99.90;;;;;;5070519;28;20217;-72
2023/06/07 06:04:56;;;;;;;16.20;14.13;;;17.80;99.90;;;;;;5070953;28;20202;-81
2023/06/07 06:07:23;;;;;;;14.95;12.38;;;17.90;99.90;;;;;;5066438;28;20555;-78
2023/06/07 06:09:50;;;;;;;17.58;13.23;;;18.00;99.90;;;;;;5067990;28;20238;-72
2023/06/07 06:12:17;;;;;;;18.58;14.73;;;18.10;99.90;;;;;;5070551;28;20292;-71
2023/06/07 06:14:45;;;;;;;16.02;13.88;;;18.10;99.90;;;;;;5070653;28;20213;-71
2023/06/07 06:17:12;;;;;;;14.57;12.73;;;18.30;99.90;;;;;;5070943;28;20645;-68
2023/06/07 06:19:39;;;;;;;18.80;13.75;;;18.40;99.90;;;;;;5070930;28;20202;-70
2023/06/07 06:22:06;;;;;;;13.23;11.57;;;18.50;99.90;;;;;;5070371;28;20689;-79
2023/06/07 06:24:33;;;;;;;16.60;12.80;;;18.60;99.90;;;;;;5070397;28;20669;-74
2023/06/07 06:27:00;;;;;;;13.40;11.95;;;18.80;99.90;;;;;;5070909;28;20209;-69
2023/06/07 06:29:27;;;;;;;13.55;12.15;;;18.90;99.90;;;;;;5067799;28;20241;-79
2023/06/07 06:31:55;;;;;;;15.30;11.73;;;19.00;99.90;;;;;;5057657;28;20662;-75
2023/06/07 06:34:23;;;;;;;13.77;10.80;;;19.10;99.90;;;;;;5061733;28;20257;-74
2023/06/07 06:36:50;;;;;;;12.43;10.98;;;19.20;99.90;;;;;;5065377;28;20213;-71
2023/06/07 06:39:17;;;;;;;14.27;12.35;;;19.30;99.90;;;;;;5069278;28;20740;-72
2023/06/07 06:41:45;;;;;;;12.95;11.25;;;19.40;99.90;;;;;;5070878;28;20207;-78
2023/06/07 06:44:12;;;;;;;13.85;12.40;;;19.40;99.90;;;;;;5064938;28;20202;-72
2023/06/07 06:46:38;;;;;;;16.23;12.50;;;19.60;99.90;;;;;;5070461;28;20678;-83
2023/06/07 06:49:07;;;;;;;13.40;11.80;;;19.60;99.90;;;;;;5069482;28;20238;-82
2023/06/07 06:51:34;;;;;;;14.95;11.43;;;19.70;99.90;;;;;;5069407;28;20238;-73
2023/06/07 06:54:01;;;;;;;14.40;12.38;;;19.80;99.90;;;;;;5070292;28;20237;-69
2023/06/07 06:56:28;;;;;;;13.25;11.98;;;19.90;99.90;;;;;;5070269;28;20206;-71
2023/06/07 06:58:55;;;;;;;12.52;9.77;;;19.90;99.90;;;;;;5070813;28;20670;-82
2023/06/07 07:01:22;;;;;;;15.80;11.25;;;20.10;99.90;;;;;;5070056;28;20700;-78
2023/06/07 07:03:49;;;;;;;10.40;9.38;;;20.10;99.90;;;;;;5070212;28;20249;-71
2023/06/07 07:06:18;;;;;;;12.38;10.50;;;20.20;99.90;;;;;;5066526;28;20202;-74
2023/06/07 07:08:45;;;;;;;10.75;9.40;;;20.30;99.90;;;;;;5070590;28;20206;-75
2023/06/07 07:11:12;;;;;;;11.77;9.90;;;20.40;99.90;;;;;;5070867;28;20237;-80
2023/06/07 07:13:39;;;;;;;10.70;9.60;;;20.50;99.90;;;;;;5070171;28;20230;-71
2023/06/07 07:16:06;;;;;;;15.52;11.55;;;20.70;99.90;;;;;;5070422;28;20198;-75
2023/06/07 07:18:33;;;;;;;9.13;8.27;;;20.90;99.90;;;;;;5069400;28;20670;-70
2023/06/07 07:21:00;;;;;;;10.55;9.55;;;20.90;99.90;;;;;;5070499;28;20221;-68
2023/06/07 07:23:29;;;;;;;10.02;9.10;;;20.70;99.90;;;;;;5069678;28;20206;-71
2023/06/07 07:25:55;;;;;;;8.77;7.93;;;20.90;99.90;;;;;;5060681;28;20582;-69
2023/06/07 07:28:22;;;;;;;10.68;9.57;;;21.20;99.90;;;;;;5075630;28;20225;-70
2023/06/07 07:30:49;;;;;;;10.43;8.88;;;21.30;99.90;;;;;;5089473;28;20255;-72
2023/06/07 07:33:16;;;;;;;9.30;8.50;;;21.50;99.90;;;;;;5087158;28;20238;-74
2023/06/07 07:35:43;;;;;;;10.63;7.85;;;21.60;99.90;;;;;;5070325;28;20249;-71
2023/06/07 07:38:15;;;;;;;9.10;8.27;;;21.50;99.90;;;;;;5070298;28;20343;-73
2023/06/07 07:40:44;;;;;;;8.90;7.90;;;21.60;99.90;;;;;;5060294;28;20710;-72
2023/06/07 07:43:11;;;;;;;9.63;7.65;;;21.60;99.90;;;;;;5074171;28;20205;-74
2023/06/07 07:45:38;;;;;;;7.93;7.22;;;21.70;99.90;;;;;;5068380;28;20213;-79
2023/06/07 07:48:06;;;;;;;9.02;8.13;;;21.70;99.90;;;;;;5072843;28;20238;-76
2023/06/07 07:50:37;;;;;;;8.05;7.35;;;21.70;99.90;;;;;;5072021;28;20283;-72
2023/06/07 07:53:05;;;;;;;8.60;7.75;;;21.70;99.90;;;;;;5073459;28;20242;-73
2023/06/07 07:55:33;;;;;;;8.30;7.53;;;22.00;99.90;;;;;;5073234;28;20242;-72
2023/06/07 07:58:01;;;;;;;8.27;7.47;;;22.20;99.90;;;;;;5073393;28;20238;-77
2023/06/07 08:00:28;;;;;;;8.25;7.55;;;22.60;99.90;;;;;;5073072;28;20299;-77
2023/06/07 08:02:55;;;;;;;7.75;7.05;;;22.60;99.90;;;;;;5073074;28;20677;-78
2023/06/07 08:05:22;;;;;;;7.70;7.00;;;22.40;99.90;;;;;;5073399;28;20234;-78
2023/06/07 08:55:31;;;;;;;7.13;6.50;;;23.30;99.90;;;;;;5139195;27;20494;-77
2023/06/07 08:57:58;;;;;;;5.38;4.97;;;24.00;99.90;;;;;;5107960;28;20201;-77
2023/06/07 09:00:26;;;;;;;5.93;5.35;;;24.00;99.90;;;;;;5107804;28;20196;-77
2023/06/07 09:02:53;;;;;;;5.45;5.05;;;24.40;99.90;;;;;;5107672;28;20205;-76
2023/06/07 09:05:20;;;;;;;5.50;5.00;;;24.40;99.90;;;;;;5108155;28;20617;-76
2023/06/07 09:07:47;;;;;;;5.13;4.72;;;24.30;99.90;;;;;;5107757;28;20240;-77
2023/06/07 09:10:17;;;;;;;5.55;4.40;;;24.60;99.90;;;;;;5107914;28;20232;-76
2023/06/07 09:12:46;;;;;;;6.15;5.68;;;24.60;99.90;;;;;;5107375;28;20258;-73
2023/06/07 09:15:18;;;;;;;5.03;4.63;;;24.60;99.90;;;;;;5107357;28;20205;-76
2023/06/07 09:17:55;;;;;;;4.32;3.97;;;24.60;99.90;;;;;;5107532;28;20212;-74
2023/06/07 09:20:24;;;;;;;3.85;3.55;;;24.80;99.90;;;;;;5107554;28;20205;-75
2023/06/07 09:23:02;;;;;;;4.50;4.20;;;24.90;99.90;;;;;;5107198;28;20241;-74
2023/06/07 09:25:31;;;;;;;6.28;4.47;;;25.10;99.90;;;;;;5108104;28;20232;-75
2023/06/07 09:28:00;;;;;;;4.25;3.95;;;25.60;99.90;;;;;;5107149;28;20217;-75
2023/06/07 09:30:27;;;;;;;4.15;3.85;;;26.30;99.90;;;;;;5107287;28;20205;-77
2023/06/07 09:32:54;;;;;;;3.75;3.45;;;28.40;99.90;;;;;;5120501;28;20666;-75
2023/06/07 09:35:21;;;;;;;3.90;3.60;;;29.80;99.90;;;;;;5109366;28;20204;-75
2023/06/07 09:37:50;;;;;;;3.80;3.30;;;32.10;99.90;;;;;;5107057;28;20205;-76
2023/06/07 09:40:18;;;;;;;4.43;4.10;;;33.90;99.90;;;;;;5107449;28;20209;-76
2023/06/07 09:42:45;;;;;;;3.35;3.13;;;32.40;99.90;;;;;;5106819;28;20212;-73
2023/06/07 09:45:16;;;;;;;3.95;3.65;;;32.00;99.90;;;;;;5107368;28;20259;-78
2023/06/07 09:47:44;;;;;;;3.78;3.50;;;32.60;99.90;;;;;;5107103;28;20729;-76
2023/06/07 09:50:12;;;;;;;3.40;3.20;;;33.50;99.90;;;;;;5106972;28;20258;-76
2023/06/07 09:52:40;;;;;;;5.28;3.03;;;34.20;99.90;;;;;;5106833;28;20243;-76
2023/06/07 09:55:08;;;;;;;3.78;3.47;;;33.10;99.90;;;;;;5100301;28;20227;-76
2023/06/07 09:57:37;;;;;;;3.60;3.30;;;35.10;99.90;;;;;;5093077;28;20208;-75
2023/06/07 10:00:10;;;;;;;4.25;3.55;;;33.40;99.90;;;;;;5092987;28;20630;-76
2023/06/07 10:02:39;;;;;;;3.05;2.78;;;34.30;99.90;;;;;;5093047;28;20291;-78
2023/06/07 10:05:06;;;;;;;3.13;2.83;;;36.10;99.90;;;;;;5092069;28;20663;-77
2023/06/07 10:07:37;;;;;;;2.97;2.65;;;34.50;99.90;;;;;;5093422;28;20669;-77
2023/06/07 10:10:05;;;;;;;4.50;3.33;;;35.80;99.90;;;;;;5098985;28;20703;-77
2023/06/07 10:12:35;;;;;;;3.25;3.05;;;35.10;99.90;;;;;;5097074;28;20244;-76
2023/06/07 10:15:03;;;;;;;3.25;3.05;;;36.20;99.90;;;;;;5110373;28;20215;-78
2023/06/07 10:17:41;;;;;;;3.10;2.80;;;36.60;99.90;;;;;;5111350;28;20215;-75
2023/06/07 10:20:13;;;;;;;3.13;2.92;;;34.70;99.90;;;;;;5109580;28;20231;-77
2023/06/07 10:22:44;;;;;;;3.13;2.92;;;37.00;99.90;;;;;;5099557;28;20211;-77
2023/06/07 10:25:16;;;;;;;3.67;3.22;;;38.10;99.90;;;;;;5108283;28;20216;-75
2023/06/07 10:27:51;;;;;;;3.42;3.20;;;35.80;99.90;;;;;;5106658;28;20667;-76
2023/06/07 10:30:20;;;;;;;3.63;3.33;;;35.00;99.90;;;;;;5100785;28;20211;-77
2023/06/07 10:32:48;;;;;;;4.57;4.28;;;32.00;99.90;;;;;;5097774;28;20233;-76
2023/06/07 10:35:18;;;;;;;3.90;3.60;;;29.40;99.90;;;;;;5104857;28;20228;-78
2023/06/07 10:37:50;;;;;;;3.20;2.92;;;28.10;99.90;;;;;;5092342;28;20313;-77
2023/06/07 10:40:17;;;;;;;5.50;3.13;;;28.00;99.90;;;;;;5092599;28;20258;-77
2023/06/07 10:42:46;;;;;;;4.22;3.92;;;27.60;99.90;;;;;;5091331;28;20294;-77
2023/06/07 10:45:18;;;;;;;4.25;3.85;;;27.80;99.90;;;;;;5091671;28;20240;-77
2023/06/07 10:47:45;;;;;;;4.32;3.60;;;27.80;99.90;;;;;;5090758;28;20197;-77
2023/06/07 10:50:47;;;;;;;4.50;3.60;;;27.60;99.90;;;;;;5092225;28;20233;-78
2023/06/07 10:53:14;;;;;;;3.75;3.45;;;27.60;99.90;;;;;;5095624;28;20209;-76
2023/06/07 10:55:41;;;;;;;3.47;3.28;;;27.20;99.90;;;;;;5092063;28;20701;-77
2023/06/07 10:58:26;;;;;;;4.53;4.10;;;27.00;99.90;;;;;;5095688;28;20237;-77
2023/06/07 11:00:54;;;;;;;4.10;3.80;;;27.30;99.90;;;;;;5108949;28;20209;-77
2023/06/07 11:03:40;;;;;;;3.70;3.40;;;27.50;99.90;;;;;;5092308;28;20224;-76
2023/06/07 11:06:10;;;;;;;6.80;4.40;;;27.00;99.90;;;;;;5091160;28;20633;-76
2023/06/07 11:08:38;;;;;;;4.55;4.25;;;26.80;99.90;;;;;;5097722;28;20202;-76
2023/06/07 11:11:27;;;;;;;3.78;3.47;;;27.00;99.90;;;;;;5095324;28;20209;-76
2023/06/07 11:14:11;;;;;;;3.45;3.20;;;27.00;99.90;;;;;;5091724;28;20574;-77
2023/06/07 11:16:38;;;;;;;3.90;3.47;;;27.00;99.90;;;;;;5092014;28;20205;-76
2023/06/07 11:19:09;;;;;;;3.97;3.40;;;27.00;99.90;;;;;;5095683;28;20760;-76
2023/06/07 11:22:04;;;;;;;5.40;3.85;;;26.90;99.90;;;;;;5105219;28;20258;-77
2023/06/07 11:24:38;;;;;;;4.38;3.85;;;27.00;99.90;;;;;;5091461;28;20244;-78
2023/06/07 11:27:14;;;;;;;3.55;3.08;;;27.00;99.90;;;;;;5091617;28;20209;-75
2023/06/07 11:29:43;;;;;;;4.10;3.70;;;27.20;99.90;;;;;;5091364;28;20244;-77
2023/06/07 11:32:11;;;;;;;3.80;3.47;;;27.20;99.90;;;;;;5091632;28;20206;-77
2023/06/07 11:34:38;;;;;;;4.70;3.63;;;27.10;99.90;;;;;;5091651;28;20214;-77
2023/06/07 11:37:16;;;;;;;4.70;4.10;;;27.20;99.90;;;;;;5096622;28;20241;-77
2023/06/07 11:39:44;;;;;;;3.35;3.03;;;27.40;99.90;;;;;;5100394;28;20209;-76
2023/06/07 11:42:11;;;;;;;3.55;3.25;;;27.60;99.90;;;;;;5091314;28;20255;-78
2023/06/07 11:44:38;;;;;;;3.72;3.42;;;27.60;99.90;;;;;;5090602;28;20261;-77
2023/06/07 11:47:06;;;;;;;5.13;3.53;;;27.60;99.90;;;;;;5090945;28;20202;-79
2023/06/07 11:49:35;;;;;;;3.70;3.40;;;27.50;99.90;;;;;;5091257;28;20229;-77
2023/06/07 11:52:02;;;;;;;4.57;4.22;;;27.50;99.90;;;;;;5097746;28;20586;-78
2023/06/07 11:54:30;;;;;;;4.75;3.40;;;27.50;99.90;;;;;;5090751;28;20217;-78
2023/06/07 11:56:58;;;;;;;3.58;3.38;;;27.70;99.90;;;;;;5090337;28;20213;-77
2023/06/07 11:59:27;;;;;;;2.95;2.65;;;27.60;99.90;;;;;;5102017;28;20700;-74
2023/06/07 12:01:55;;;;;;;3.60;3.30;;;27.80;99.90;;;;;;5105204;28;20254;-76
2023/06/07 12:04:23;;;;;;;5.28;3.60;;;27.80;99.90;;;;;;5104672;28;20239;-81
2023/06/07 12:06:50;;;;;;;4.05;3.65;;;27.70;99.90;;;;;;5095631;28;20205;-85
2023/06/07 12:09:19;;;;;;;4.15;3.78;;;27.50;99.90;;;;;;5094726;28;20229;-76
2023/06/07 12:11:48;;;;;;;3.15;2.85;;;27.20;99.90;;;;;;5095577;28;20212;-77
2023/06/07 12:14:31;;;;;;;3.40;3.20;;;27.30;99.90;;;;;;5100531;28;20236;-76
2023/06/07 12:17:00;;;;;;;2.90;2.70;;;27.50;99.90;;;;;;5089591;28;20269;-75
2023/06/07 12:19:27;;;;;;;4.20;3.78;;;27.70;99.90;;;;;;5093806;28;20583;-74
2023/06/07 12:22:02;;;;;;;3.90;3.60;;;27.80;99.90;;;;;;5094547;28;20233;-75
2023/06/07 12:24:29;;;;;;;3.85;3.17;;;27.90;99.90;;;;;;5095865;28;20308;-77
2023/06/07 12:26:58;;;;;;;3.40;3.10;;;28.00;99.90;;;;;;5103038;28;20212;-76
2023/06/07 12:29:29;;;;;;;3.17;2.97;;;27.70;99.90;;;;;;5107250;28;20201;-76
2023/06/07 12:32:05;;;;;;;3.65;2.70;;;27.80;99.90;;;;;;5104724;28;20197;-77
2023/06/07 12:34:39;;;;;;;4.10;2.92;;;28.00;99.90;;;;;;5101619;28;20209;-81
2023/06/07 12:37:07;;;;;;;3.65;3.45;;;27.90;99.90;;;;;;5091302;28;20665;-77
2023/06/07 12:39:33;;;;;;;2.85;2.65;;;27.80;99.90;;;;;;5093675;28;20237;-78
2023/06/07 12:42:02;;;;;;;2.72;2.50;;;27.50;99.90;;;;;;5097257;28;21075;-79
2023/06/07 12:44:29;;;;;;;3.47;3.05;;;27.40;99.90;;;;;;5099331;28;20260;-81
2023/06/07 12:46:57;;;;;;;3.47;2.97;;;27.40;99.90;;;;;;5098395;28;20668;-76
2023/06/07 12:49:24;;;;;;;2.90;2.65;;;27.60;99.90;;;;;;5096682;28;20212;-76
2023/06/07 12:51:54;;;;;;;3.40;2.85;;;27.70;99.90;;;;;;5094953;28;20249;-76
2023/06/07 12:54:21;;;;;;;4.10;3.80;;;27.60;99.90;;;;;;5095659;28;20310;-78
2023/06/07 12:56:48;;;;;;;3.25;3.05;;;27.70;99.90;;;;;;5103603;28;20281;-76
2023/06/07 12:59:16;;;;;;;9.90;3.00;;;27.80;99.90;;;;;;5099118;28;20237;-77
2023/06/07 13:01:43;;;;;;;4.53;3.25;;;27.70;99.90;;;;;;5095499;28;20201;-76
2023/06/07 13:04:11;;;;;;;3.03;2.72;;;27.60;99.90;;;;;;5095525;28;20275;-77
2023/06/07 13:06:38;;;;;;;4.35;4.00;;;27.70;99.90;;;;;;5089873;28;20730;-76
2023/06/07 13:09:09;;;;;;;3.47;3.10;;;27.50;99.90;;;;;;5088126;28;20209;-76
2023/06/07 13:11:37;;;;;;;7.45;3.13;;;27.40;99.90;;;;;;5096130;28;20228;-74
2023/06/07 13:14:04;;;;;;;3.05;2.75;;;27.60;99.90;;;;;;5104541;28;20215;-73
2023/06/07 13:16:32;;;;;;;4.50;3.38;;;27.70;99.90;;;;;;5097148;28;20265;-72
2023/06/07 13:19:00;;;;;;;5.68;3.13;;;27.40;99.90;;;;;;5101628;28;20245;-70
2023/06/07 13:21:27;;;;;;;3.60;3.30;;;27.40;99.90;;;;;;5097409;28;20208;-70
2023/06/07 13:23:54;;;;;;;2.60;2.40;;;27.20;99.90;;;;;;5096803;28;20240;-73
2023/06/07 13:26:21;;;;;;;2.70;2.50;;;27.10;99.90;;;;;;5102339;28;20237;-75
2023/06/07 13:28:48;;;;;;;3.15;2.95;;;27.10;99.90;;;;;;5095702;28;20241;-71
2023/06/07 13:31:16;;;;;;;3.15;2.83;;;27.00;99.90;;;;;;5092135;28;20208;-85
2023/06/07 13:33:45;;;;;;;5.47;3.25;;;27.30;99.90;;;;;;5103017;28;20631;-73
2023/06/07 13:36:12;;;;;;;3.58;2.10;;;27.40;99.90;;;;;;5094509;28;20740;-76
2023/06/07 13:38:39;;;;;;;3.45;3.03;;;27.20;99.90;;;;;;5097339;28;20609;-74